sensor_id;sensor_type;location;lat;lon;timestamp;temperature;humidity
52903;DHT22;38765;53.176;7.090;2022-08-05T00:01:19;18.50;99.90
52903;DHT22;38765;53.176;7.090;2022-08-05T00:03:46;18.50;99.90
52903;DHT22;38765;53.176;7.090;2022-08-05T00:06:12;18.50;99.90
52903;DHT22;38765;53.176;7.090;2022-08-05T00:08:38;18.40;99.90
52903;DHT22;38765;53.176;7.090;2022-08-05T00:11:05;18.40;99.90
52903;DHT22;38765;53.176;7.090;2022-08-05T00:13:32;18.30;99.90
52903;DHT22;38765;53.176;7.090;2022-08-05T00:15:57;18.30;99.90
52903;DHT22;38765;53.176;7.090;2022-08-05T00:18:23;18.20;99.90
52903;DHT22;38765;53.176;7.090;2022-08-05T00:20:49;18.20;99.90
52903;DHT22;38765;53.176;7.090;2022-08-05T00:23:15;18.20;99.90
52903;DHT22;38765;53.176;7.090;2022-08-05T00:25:40;18.20;99.90
52903;DHT22;38765;53.176;7.090;2022-08-05T00:28:06;18.20;99.90
52903;DHT22;38765;53.176;7.090;2022-08-05T00:30:32;18.10;99.90
52903;DHT22;38765;53.176;7.090;2022-08-05T00:32:57;18.10;99.90
52903;DHT22;38765;53.176;7.090;2022-08-05T00:35:25;18.10;99.90
52903;DHT22;38765;53.176;7.090;2022-08-05T00:37:51;18.10;99.90
52903;DHT22;38765;53.176;7.090;2022-08-05T00:40:17;18.00;99.90
52903;DHT22;38765;53.176;7.090;2022-08-05T00:42:43;18.00;99.90
52903;DHT22;38765;53.176;7.090;2022-08-05T00:45:09;17.90;99.90
52903;DHT22;38765;53.176;7.090;2022-08-05T00:47:34;17.60;99.90
52903;DHT22;38765;53.176;7.090;2022-08-05T00:50:00;18.00;99.90
52903;DHT22;38765;53.176;7.090;2022-08-05T00:52:28;18.00;99.90
52903;DHT22;38765;53.176;7.090;2022-08-05T00:54:55;17.90;99.90
52903;DHT22;38765;53.176;7.090;2022-08-05T00:57:20;17.90;99.90
52903;DHT22;38765;53.176;7.090;2022-08-05T00:59:47;18.00;99.90
52903;DHT22;38765;53.176;7.090;2022-08-05T01:02:12;18.00;99.90
52903;DHT22;38765;53.176;7.090;2022-08-05T01:04:38;17.90;99.90
52903;DHT22;38765;53.176;7.090;2022-08-05T01:07:04;17.90;99.90
52903;DHT22;38765;53.176;7.090;2022-08-05T01:09:30;18.10;99.90
52903;DHT22;38765;53.176;7.090;2022-08-05T01:11:57;18.00;99.90
52903;DHT22;38765;53.176;7.090;2022-08-05T01:19:47;18.00;99.90
52903;DHT22;38765;53.176;7.090;2022-08-05T01:22:28;18.10;99.90
52903;DHT22;38765;53.176;7.090;2022-08-05T01:30:18;18.20;99.90
52903;DHT22;38765;53.176;7.090;2022-08-05T01:32:44;18.20;99.90
52903;DHT22;38765;53.176;7.090;2022-08-05T01:35:13;18.30;99.90
52903;DHT22;38765;53.176;7.090;2022-08-05T01:37:49;18.30;99.90
52903;DHT22;38765;53.176;7.090;2022-08-05T01:40:16;18.30;99.90
52903;DHT22;38765;53.176;7.090;2022-08-05T01:42:43;18.30;99.90
52903;DHT22;38765;53.176;7.090;2022-08-05T01:45:10;18.30;99.90
52903;DHT22;38765;53.176;7.090;2022-08-05T01:47:39;18.30;99.90
52903;DHT22;38765;53.176;7.090;2022-08-05T01:50:07;18.50;99.90
52903;DHT22;38765;53.176;7.090;2022-08-05T01:52:34;18.30;99.90
52903;DHT22;38765;53.176;7.090;2022-08-05T01:55:02;18.30;99.90
52903;DHT22;38765;53.176;7.090;2022-08-05T01:57:34;18.30;99.90
52903;DHT22;38765;53.176;7.090;2022-08-05T02:00:03;18.40;99.90
52903;DHT22;38765;53.176;7.090;2022-08-05T02:02:30;18.30;99.90
52903;DHT22;38765;53.176;7.090;2022-08-05T02:05:00;18.30;99.90
52903;DHT22;38765;53.176;7.090;2022-08-05T02:07:25;18.30;99.90
52903;DHT22;38765;53.176;7.090;2022-08-05T02:09:51;18.20;99.90
52903;DHT22;38765;53.176;7.090;2022-08-05T02:12:18;18.20;99.90
52903;DHT22;38765;53.176;7.090;2022-08-05T02:14:47;18.20;99.90
52903;DHT22;38765;53.176;7.090;2022-08-05T02:17:24;18.20;99.90
52903;DHT22;38765;53.176;7.090;2022-08-05T02:19:53;18.20;99.90
52903;DHT22;38765;53.176;7.090;2022-08-05T02:24:52;18.30;99.90
52903;DHT22;38765;53.176;7.090;2022-08-05T02:27:20;18.30;99.90
52903;DHT22;38765;53.176;7.090;2022-08-05T02:29:46;18.30;99.90
52903;DHT22;38765;53.176;7.090;2022-08-05T02:32:13;18.30;99.90
52903;DHT22;38765;53.176;7.090;2022-08-05T02:34:39;18.30;99.90
52903;DHT22;38765;53.176;7.090;2022-08-05T02:37:06;18.30;99.90
52903;DHT22;38765;53.176;7.090;2022-08-05T02:39:34;18.30;99.90
52903;DHT22;38765;53.176;7.090;2022-08-05T02:42:01;18.30;99.90
52903;DHT22;38765;53.176;7.090;2022-08-05T02:44:27;18.30;99.90
52903;DHT22;38765;53.176;7.090;2022-08-05T02:46:54;18.30;99.90
52903;DHT22;38765;53.176;7.090;2022-08-05T02:49:20;18.30;99.90
52903;DHT22;38765;53.176;7.090;2022-08-05T02:51:49;18.30;99.90
52903;DHT22;38765;53.176;7.090;2022-08-05T02:54:18;18.30;99.90
52903;DHT22;38765;53.176;7.090;2022-08-05T02:56:45;18.10;99.90
52903;DHT22;38765;53.176;7.090;2022-08-05T02:59:11;18.30;99.90
52903;DHT22;38765;53.176;7.090;2022-08-05T03:01:38;18.30;99.90
52903;DHT22;38765;53.176;7.090;2022-08-05T03:04:07;18.30;99.90
52903;DHT22;38765;53.176;7.090;2022-08-05T03:06:33;18.30;99.90
52903;DHT22;38765;53.176;7.090;2022-08-05T03:08:59;18.30;99.90
52903;DHT22;38765;53.176;7.090;2022-08-05T03:11:25;18.30;99.90
52903;DHT22;38765;53.176;7.090;2022-08-05T03:13:52;18.30;99.90
52903;DHT22;38765;53.176;7.090;2022-08-05T03:16:18;18.30;99.90
52903;DHT22;38765;53.176;7.090;2022-08-05T03:18:44;18.30;99.90
52903;DHT22;38765;53.176;7.090;2022-08-05T03:21:10;18.30;99.90
52903;DHT22;38765;53.176;7.090;2022-08-05T03:23:37;18.30;99.90
52903;DHT22;38765;53.176;7.090;2022-08-05T03:26:03;18.30;99.90
52903;DHT22;38765;53.176;7.090;2022-08-05T03:28:29;18.30;99.90
52903;DHT22;38765;53.176;7.090;2022-08-05T03:30:55;18.00;99.90
52903;DHT22;38765;53.176;7.090;2022-08-05T03:33:21;18.30;99.90
52903;DHT22;38765;53.176;7.090;2022-08-05T03:35:47;18.30;99.90
52903;DHT22;38765;53.176;7.090;2022-08-05T03:38:13;18.30;99.90
52903;DHT22;38765;53.176;7.090;2022-08-05T03:40:42;18.30;99.90
52903;DHT22;38765;53.176;7.090;2022-08-05T03:43:08;18.30;99.90
52903;DHT22;38765;53.176;7.090;2022-08-05T03:45:33;18.30;99.90
52903;DHT22;38765;53.176;7.090;2022-08-05T03:47:59;18.30;99.90
52903;DHT22;38765;53.176;7.090;2022-08-05T03:50:32;18.30;99.90
52903;DHT22;38765;53.176;7.090;2022-08-05T03:53:01;18.30;99.90
52903;DHT22;38765;53.176;7.090;2022-08-05T03:55:31;18.30;99.90
52903;DHT22;38765;53.176;7.090;2022-08-05T03:57:58;18.20;99.90
52903;DHT22;38765;53.176;7.090;2022-08-05T04:00:25;18.20;99.90
52903;DHT22;38765;53.176;7.090;2022-08-05T04:02:56;18.30;99.90
52903;DHT22;38765;53.176;7.090;2022-08-05T04:05:22;18.30;99.90
52903;DHT22;38765;53.176;7.090;2022-08-05T04:07:48;18.30;99.90
52903;DHT22;38765;53.176;7.090;2022-08-05T04:10:17;18.20;99.90
52903;DHT22;38765;53.176;7.090;2022-08-05T04:12:45;18.20;99.90
52903;DHT22;38765;53.176;7.090;2022-08-05T04:15:10;18.20;99.90
52903;DHT22;38765;53.176;7.090;2022-08-05T04:17:36;18.20;99.90
52903;DHT22;38765;53.176;7.090;2022-08-05T04:20:02;18.20;99.90
52903;DHT22;38765;53.176;7.090;2022-08-05T04:22:28;18.20;99.90
52903;DHT22;38765;53.176;7.090;2022-08-05T04:24:54;18.20;99.90
52903;DHT22;38765;53.176;7.090;2022-08-05T04:27:19;18.20;99.90
52903;DHT22;38765;53.176;7.090;2022-08-05T04:29:45;18.20;99.90
52903;DHT22;38765;53.176;7.090;2022-08-05T04:32:13;18.20;99.90
52903;DHT22;38765;53.176;7.090;2022-08-05T04:34:39;18.20;99.90
52903;DHT22;38765;53.176;7.090;2022-08-05T04:37:10;18.10;99.90
52903;DHT22;38765;53.176;7.090;2022-08-05T04:39:38;17.90;99.90
52903;DHT22;38765;53.176;7.090;2022-08-05T04:42:04;18.10;99.90
52903;DHT22;38765;53.176;7.090;2022-08-05T04:44:29;18.10;99.90
52903;DHT22;38765;53.176;7.090;2022-08-05T04:46:56;18.10;99.90
52903;DHT22;38765;53.176;7.090;2022-08-05T04:49:22;18.10;99.90
52903;DHT22;38765;53.176;7.090;2022-08-05T04:51:47;18.20;99.90
52903;DHT22;38765;53.176;7.090;2022-08-05T04:54:13;18.20;99.90
52903;DHT22;38765;53.176;7.090;2022-08-05T04:56:39;18.20;99.90
52903;DHT22;38765;53.176;7.090;2022-08-05T04:59:04;18.20;99.90
52903;DHT22;38765;53.176;7.090;2022-08-05T05:01:30;18.20;99.90
52903;DHT22;38765;53.176;7.090;2022-08-05T05:03:55;18.20;99.90
52903;DHT22;38765;53.176;7.090;2022-08-05T05:06:21;18.10;99.90
52903;DHT22;38765;53.176;7.090;2022-08-05T05:08:47;18.20;99.90
52903;DHT22;38765;53.176;7.090;2022-08-05T05:11:12;18.00;99.90
52903;DHT22;38765;53.176;7.090;2022-08-05T05:13:40;18.20;99.90
52903;DHT22;38765;53.176;7.090;2022-08-05T05:16:06;18.10;99.90
52903;DHT22;38765;53.176;7.090;2022-08-05T05:18:32;18.10;99.90
52903;DHT22;38765;53.176;7.090;2022-08-05T05:20:57;18.10;99.90
52903;DHT22;38765;53.176;7.090;2022-08-05T05:23:23;17.90;99.90
52903;DHT22;38765;53.176;7.090;2022-08-05T05:25:51;18.10;99.90
52903;DHT22;38765;53.176;7.090;2022-08-05T05:28:17;18.20;99.90
52903;DHT22;38765;53.176;7.090;2022-08-05T05:30:42;18.10;99.90
52903;DHT22;38765;53.176;7.090;2022-08-05T05:33:08;18.10;99.90
52903;DHT22;38765;53.176;7.090;2022-08-05T05:35:35;18.10;99.90
52903;DHT22;38765;53.176;7.090;2022-08-05T05:38:01;18.20;99.90
52903;DHT22;38765;53.176;7.090;2022-08-05T05:40:28;18.20;99.90
52903;DHT22;38765;53.176;7.090;2022-08-05T05:42:53;18.30;99.90
52903;DHT22;38765;53.176;7.090;2022-08-05T05:45:19;18.30;99.90
52903;DHT22;38765;53.176;7.090;2022-08-05T05:47:45;18.30;99.90
52903;DHT22;38765;53.176;7.090;2022-08-05T05:50:12;18.30;99.90
52903;DHT22;38765;53.176;7.090;2022-08-05T05:52:38;18.30;99.90
52903;DHT22;38765;53.176;7.090;2022-08-05T05:55:05;18.30;99.90
52903;DHT22;38765;53.176;7.090;2022-08-05T05:57:36;18.30;99.90
52903;DHT22;38765;53.176;7.090;2022-08-05T06:00:06;18.30;99.90
52903;DHT22;38765;53.176;7.090;2022-08-05T06:02:32;18.30;99.90
52903;DHT22;38765;53.176;7.090;2022-08-05T06:04:58;18.20;99.90
52903;DHT22;38765;53.176;7.090;2022-08-05T06:07:23;18.20;99.90
52903;DHT22;38765;53.176;7.090;2022-08-05T06:09:49;18.20;99.90
52903;DHT22;38765;53.176;7.090;2022-08-05T06:12:15;18.20;99.90
52903;DHT22;38765;53.176;7.090;2022-08-05T06:14:40;18.20;99.90
52903;DHT22;38765;53.176;7.090;2022-08-05T06:17:10;18.20;99.90
52903;DHT22;38765;53.176;7.090;2022-08-05T06:19:35;18.10;99.90
52903;DHT22;38765;53.176;7.090;2022-08-05T06:22:05;18.10;99.90
52903;DHT22;38765;53.176;7.090;2022-08-05T06:24:39;18.00;99.90
52903;DHT22;38765;53.176;7.090;2022-08-05T06:27:05;18.10;99.90
52903;DHT22;38765;53.176;7.090;2022-08-05T06:29:31;18.10;99.90
52903;DHT22;38765;53.176;7.090;2022-08-05T06:31:56;18.10;99.90
52903;DHT22;38765;53.176;7.090;2022-08-05T06:34:22;18.20;99.90
52903;DHT22;38765;53.176;7.090;2022-08-05T06:36:48;18.20;99.90
52903;DHT22;38765;53.176;7.090;2022-08-05T06:39:13;18.20;99.90
52903;DHT22;38765;53.176;7.090;2022-08-05T06:41:39;18.00;99.90
52903;DHT22;38765;53.176;7.090;2022-08-05T06:44:05;18.30;99.90
52903;DHT22;38765;53.176;7.090;2022-08-05T06:46:30;18.30;99.90
52903;DHT22;38765;53.176;7.090;2022-08-05T06:48:56;18.30;99.90
52903;DHT22;38765;53.176;7.090;2022-08-05T06:51:22;18.40;99.90
52903;DHT22;38765;53.176;7.090;2022-08-05T06:53:48;18.40;99.90
52903;DHT22;38765;53.176;7.090;2022-08-05T06:56:14;18.40;99.90
52903;DHT22;38765;53.176;7.090;2022-08-05T06:58:40;18.50;99.90
52903;DHT22;38765;53.176;7.090;2022-08-05T07:01:05;18.50;99.90
52903;DHT22;38765;53.176;7.090;2022-08-05T07:03:31;18.50;99.90
52903;DHT22;38765;53.176;7.090;2022-08-05T07:05:57;18.50;99.90
52903;DHT22;38765;53.176;7.090;2022-08-05T07:08:23;18.50;99.90
52903;DHT22;38765;53.176;7.090;2022-08-05T07:10:53;18.40;99.90
52903;DHT22;38765;53.176;7.090;2022-08-05T07:13:18;18.90;99.90
52903;DHT22;38765;53.176;7.090;2022-08-05T07:16:03;18.60;99.90
52903;DHT22;38765;53.176;7.090;2022-08-05T07:18:47;18.60;99.90
52903;DHT22;38765;53.176;7.090;2022-08-05T07:21:12;18.60;99.90
52903;DHT22;38765;53.176;7.090;2022-08-05T07:23:38;18.70;99.90
52903;DHT22;38765;53.176;7.090;2022-08-05T07:26:03;18.70;99.90
52903;DHT22;38765;53.176;7.090;2022-08-05T07:28:29;18.80;99.90
52903;DHT22;38765;53.176;7.090;2022-08-05T07:30:55;18.90;99.90
52903;DHT22;38765;53.176;7.090;2022-08-05T07:33:20;19.00;99.90
52903;DHT22;38765;53.176;7.090;2022-08-05T07:35:46;19.10;99.90
52903;DHT22;38765;53.176;7.090;2022-08-05T07:38:16;19.20;99.90
52903;DHT22;38765;53.176;7.090;2022-08-05T07:40:42;19.20;99.90
52903;DHT22;38765;53.176;7.090;2022-08-05T07:43:08;19.30;99.90
52903;DHT22;38765;53.176;7.090;2022-08-05T07:45:34;19.40;99.90
52903;DHT22;38765;53.176;7.090;2022-08-05T07:47:59;19.50;99.90
52903;DHT22;38765;53.176;7.090;2022-08-05T07:50:25;19.60;99.90
52903;DHT22;38765;53.176;7.090;2022-08-05T07:52:51;19.80;99.90
52903;DHT22;38765;53.176;7.090;2022-08-05T07:55:16;19.90;99.90
52903;DHT22;38765;53.176;7.090;2022-08-05T07:57:42;19.90;99.90
52903;DHT22;38765;53.176;7.090;2022-08-05T08:00:08;20.00;99.90
52903;DHT22;38765;53.176;7.090;2022-08-05T08:02:34;20.00;99.90
52903;DHT22;38765;53.176;7.090;2022-08-05T08:04:59;19.90;99.90
52903;DHT22;38765;53.176;7.090;2022-08-05T08:07:25;19.90;99.90
52903;DHT22;38765;53.176;7.090;2022-08-05T08:09:51;19.90;99.90
52903;DHT22;38765;53.176;7.090;2022-08-05T08:12:17;19.70;99.90
52903;DHT22;38765;53.176;7.090;2022-08-05T08:14:43;19.90;99.90
52903;DHT22;38765;53.176;7.090;2022-08-05T08:17:09;20.00;99.90
52903;DHT22;38765;53.176;7.090;2022-08-05T08:19:38;20.10;99.90
52903;DHT22;38765;53.176;7.090;2022-08-05T08:22:04;20.20;99.90
52903;DHT22;38765;53.176;7.090;2022-08-05T08:24:30;20.30;99.90
52903;DHT22;38765;53.176;7.090;2022-08-05T08:26:56;20.30;99.90
52903;DHT22;38765;53.176;7.090;2022-08-05T08:29:21;20.40;99.90
52903;DHT22;38765;53.176;7.090;2022-08-05T08:31:47;20.30;99.90
52903;DHT22;38765;53.176;7.090;2022-08-05T08:34:13;20.40;99.90
52903;DHT22;38765;53.176;7.090;2022-08-05T08:36:39;20.40;99.90
52903;DHT22;38765;53.176;7.090;2022-08-05T08:39:05;20.50;99.90
52903;DHT22;38765;53.176;7.090;2022-08-05T08:41:31;20.50;99.90
52903;DHT22;38765;53.176;7.090;2022-08-05T08:43:57;20.50;99.90
52903;DHT22;38765;53.176;7.090;2022-08-05T08:46:25;20.40;99.90
52903;DHT22;38765;53.176;7.090;2022-08-05T08:48:51;20.40;99.90
52903;DHT22;38765;53.176;7.090;2022-08-05T08:51:18;20.50;99.90
52903;DHT22;38765;53.176;7.090;2022-08-05T08:53:44;20.50;99.90
52903;DHT22;38765;53.176;7.090;2022-08-05T08:56:13;20.50;99.90
52903;DHT22;38765;53.176;7.090;2022-08-05T08:58:39;20.50;99.90
52903;DHT22;38765;53.176;7.090;2022-08-05T09:01:08;20.50;99.90
52903;DHT22;38765;53.176;7.090;2022-08-05T09:03:37;20.50;99.90
52903;DHT22;38765;53.176;7.090;2022-08-05T09:06:03;20.50;99.90
52903;DHT22;38765;53.176;7.090;2022-08-05T09:08:28;20.70;99.90
52903;DHT22;38765;53.176;7.090;2022-08-05T09:10:54;20.70;99.90
52903;DHT22;38765;53.176;7.090;2022-08-05T09:13:20;20.80;99.90
52903;DHT22;38765;53.176;7.090;2022-08-05T09:15:45;20.90;99.90
52903;DHT22;38765;53.176;7.090;2022-08-05T09:18:11;21.00;99.90
52903;DHT22;38765;53.176;7.090;2022-08-05T09:20:37;21.00;99.90
52903;DHT22;38765;53.176;7.090;2022-08-05T09:25:32;21.10;99.90
52903;DHT22;38765;53.176;7.090;2022-08-05T09:28:07;21.10;99.90
52903;DHT22;38765;53.176;7.090;2022-08-05T09:30:33;21.00;99.90
52903;DHT22;38765;53.176;7.090;2022-08-05T09:33:02;21.00;99.90
52903;DHT22;38765;53.176;7.090;2022-08-05T09:35:30;21.00;99.90
52903;DHT22;38765;53.176;7.090;2022-08-05T09:37:56;21.00;99.90
52903;DHT22;38765;53.176;7.090;2022-08-05T09:40:30;21.00;99.90
52903;DHT22;38765;53.176;7.090;2022-08-05T09:42:56;20.90;99.90
52903;DHT22;38765;53.176;7.090;2022-08-05T09:45:32;21.00;99.90
52903;DHT22;38765;53.176;7.090;2022-08-05T09:47:58;20.80;99.90
52903;DHT22;38765;53.176;7.090;2022-08-05T09:50:34;20.80;99.90
52903;DHT22;38765;53.176;7.090;2022-08-05T09:53:00;20.80;99.90
52903;DHT22;38765;53.176;7.090;2022-08-05T09:55:25;20.90;99.90
52903;DHT22;38765;53.176;7.090;2022-08-05T09:57:53;21.00;99.90
52903;DHT22;38765;53.176;7.090;2022-08-05T10:00:20;20.90;99.90
52903;DHT22;38765;53.176;7.090;2022-08-05T10:02:46;20.90;99.90
52903;DHT22;38765;53.176;7.090;2022-08-05T10:05:16;21.00;99.90
52903;DHT22;38765;53.176;7.090;2022-08-05T10:07:51;21.10;99.90
52903;DHT22;38765;53.176;7.090;2022-08-05T10:10:24;21.00;99.90
52903;DHT22;38765;53.176;7.090;2022-08-05T10:12:54;21.10;99.90
52903;DHT22;38765;53.176;7.090;2022-08-05T10:15:24;20.80;99.90
52903;DHT22;38765;53.176;7.090;2022-08-05T10:20:32;21.00;99.90
52903;DHT22;38765;53.176;7.090;2022-08-05T10:22:58;20.90;99.90
52903;DHT22;38765;53.176;7.090;2022-08-05T10:25:25;20.80;99.90
52903;DHT22;38765;53.176;7.090;2022-08-05T10:27:50;20.70;99.90
52903;DHT22;38765;53.176;7.090;2022-08-05T10:30:18;20.80;99.90
52903;DHT22;38765;53.176;7.090;2022-08-05T10:32:44;20.90;99.90
52903;DHT22;38765;53.176;7.090;2022-08-05T10:35:13;21.00;99.90
52903;DHT22;38765;53.176;7.090;2022-08-05T10:37:39;21.20;99.90
52903;DHT22;38765;53.176;7.090;2022-08-05T10:40:07;21.30;99.90
52903;DHT22;38765;53.176;7.090;2022-08-05T10:42:34;21.40;99.90
52903;DHT22;38765;53.176;7.090;2022-08-05T10:45:03;21.40;99.90
52903;DHT22;38765;53.176;7.090;2022-08-05T10:47:30;21.60;99.90
52903;DHT22;38765;53.176;7.090;2022-08-05T10:50:02;21.60;99.90
52903;DHT22;38765;53.176;7.090;2022-08-05T10:52:43;21.90;99.90
52903;DHT22;38765;53.176;7.090;2022-08-05T10:55:11;21.60;99.90
52903;DHT22;38765;53.176;7.090;2022-08-05T10:57:38;21.50;99.90
52903;DHT22;38765;53.176;7.090;2022-08-05T11:00:11;21.50;99.90
52903;DHT22;38765;53.176;7.090;2022-08-05T11:02:40;21.50;99.90
52903;DHT22;38765;53.176;7.090;2022-08-05T11:05:26;21.50;99.90
52903;DHT22;38765;53.176;7.090;2022-08-05T11:07:54;21.50;99.90
52903;DHT22;38765;53.176;7.090;2022-08-05T11:10:24;21.50;99.90
52903;DHT22;38765;53.176;7.090;2022-08-05T11:12:50;21.50;99.90
52903;DHT22;38765;53.176;7.090;2022-08-05T11:17:49;21.60;99.90
52903;DHT22;38765;53.176;7.090;2022-08-05T11:20:35;21.50;99.90
52903;DHT22;38765;53.176;7.090;2022-08-05T11:25:59;21.60;99.90
52903;DHT22;38765;53.176;7.090;2022-08-05T11:35:51;21.80;94.60
52903;DHT22;38765;53.176;7.090;2022-08-05T11:38:17;21.90;94.40
52903;DHT22;38765;53.176;7.090;2022-08-05T11:41:02;21.80;95.90
52903;DHT22;38765;53.176;7.090;2022-08-05T11:43:28;21.80;93.00
52903;DHT22;38765;53.176;7.090;2022-08-05T11:45:54;21.80;93.60
52903;DHT22;38765;53.176;7.090;2022-08-05T11:48:20;21.70;95.90
52903;DHT22;38765;53.176;7.090;2022-08-05T11:50:46;21.80;96.60
52903;DHT22;38765;53.176;7.090;2022-08-05T11:53:12;21.80;94.30
52903;DHT22;38765;53.176;7.090;2022-08-05T11:55:50;21.90;92.50
52903;DHT22;38765;53.176;7.090;2022-08-05T11:58:35;22.00;95.80
52903;DHT22;38765;53.176;7.090;2022-08-05T12:01:05;21.90;94.00
52903;DHT22;38765;53.176;7.090;2022-08-05T12:03:44;21.80;94.90
52903;DHT22;38765;53.176;7.090;2022-08-05T12:06:11;21.70;94.30
52903;DHT22;38765;53.176;7.090;2022-08-05T12:08:47;21.90;97.90
52903;DHT22;38765;53.176;7.090;2022-08-05T12:11:16;21.90;93.40
52903;DHT22;38765;53.176;7.090;2022-08-05T12:13:51;21.90;92.20
52903;DHT22;38765;53.176;7.090;2022-08-05T12:16:17;22.00;93.20
52903;DHT22;38765;53.176;7.090;2022-08-05T12:18:43;21.90;91.30
52903;DHT22;38765;53.176;7.090;2022-08-05T12:21:12;21.70;91.50
52903;DHT22;38765;53.176;7.090;2022-08-05T12:23:39;21.80;95.00
52903;DHT22;38765;53.176;7.090;2022-08-05T12:26:04;21.70;96.10
52903;DHT22;38765;53.176;7.090;2022-08-05T12:28:38;21.50;93.80
52903;DHT22;38765;53.176;7.090;2022-08-05T12:31:04;21.40;92.00
52903;DHT22;38765;53.176;7.090;2022-08-05T12:33:34;21.30;90.90
52903;DHT22;38765;53.176;7.090;2022-08-05T12:36:13;21.30;91.50
52903;DHT22;38765;53.176;7.090;2022-08-05T12:38:41;21.20;91.70
52903;DHT22;38765;53.176;7.090;2022-08-05T12:41:11;21.10;95.40
52903;DHT22;38765;53.176;7.090;2022-08-05T12:43:52;20.90;97.40
52903;DHT22;38765;53.176;7.090;2022-08-05T12:46:19;20.80;97.00
52903;DHT22;38765;53.176;7.090;2022-08-05T12:48:55;21.00;98.80
52903;DHT22;38765;53.176;7.090;2022-08-05T12:51:21;21.10;95.60
52903;DHT22;38765;53.176;7.090;2022-08-05T12:53:49;21.10;93.70
52903;DHT22;38765;53.176;7.090;2022-08-05T12:56:20;21.30;94.40
52903;DHT22;38765;53.176;7.090;2022-08-05T13:01:33;21.20;94.70
52903;DHT22;38765;53.176;7.090;2022-08-05T13:04:02;21.10;95.20
52903;DHT22;38765;53.176;7.090;2022-08-05T13:06:39;21.20;98.60
52903;DHT22;38765;53.176;7.090;2022-08-05T13:09:09;21.20;99.90
52903;DHT22;38765;53.176;7.090;2022-08-05T13:11:37;21.40;99.90
52903;DHT22;38765;53.176;7.090;2022-08-05T13:16:53;20.90;99.50
52903;DHT22;38765;53.176;7.090;2022-08-05T13:19:20;20.60;99.90
52903;DHT22;38765;53.176;7.090;2022-08-05T13:21:46;20.40;99.90
52903;DHT22;38765;53.176;7.090;2022-08-05T13:24:12;20.60;99.90
52903;DHT22;38765;53.176;7.090;2022-08-05T13:26:40;20.50;99.90
52903;DHT22;38765;53.176;7.090;2022-08-05T13:29:08;20.50;99.90
52903;DHT22;38765;53.176;7.090;2022-08-05T13:31:33;20.30;99.90
52903;DHT22;38765;53.176;7.090;2022-08-05T13:34:04;20.30;99.90
52903;DHT22;38765;53.176;7.090;2022-08-05T13:36:32;20.30;99.90
52903;DHT22;38765;53.176;7.090;2022-08-05T13:38:59;20.30;99.90
52903;DHT22;38765;53.176;7.090;2022-08-05T13:41:25;20.20;99.90
52903;DHT22;38765;53.176;7.090;2022-08-05T13:43:53;20.30;99.90
52903;DHT22;38765;53.176;7.090;2022-08-05T13:46:18;20.50;99.90
52903;DHT22;38765;53.176;7.090;2022-08-05T13:48:44;20.70;99.90
52903;DHT22;38765;53.176;7.090;2022-08-05T13:51:11;20.80;99.90
52903;DHT22;38765;53.176;7.090;2022-08-05T13:53:42;20.70;99.90
52903;DHT22;38765;53.176;7.090;2022-08-05T13:56:08;20.70;99.90
52903;DHT22;38765;53.176;7.090;2022-08-05T13:58:37;20.40;99.90
52903;DHT22;38765;53.176;7.090;2022-08-05T14:01:05;20.30;99.90
52903;DHT22;38765;53.176;7.090;2022-08-05T14:03:33;20.50;99.90
52903;DHT22;38765;53.176;7.090;2022-08-05T14:06:06;20.40;99.90
52903;DHT22;38765;53.176;7.090;2022-08-05T14:08:34;20.50;99.90
52903;DHT22;38765;53.176;7.090;2022-08-05T14:10:59;20.20;99.90
52903;DHT22;38765;53.176;7.090;2022-08-05T14:13:25;20.00;99.90
52903;DHT22;38765;53.176;7.090;2022-08-05T14:16:00;20.00;99.90
52903;DHT22;38765;53.176;7.090;2022-08-05T14:18:26;20.30;99.90
52903;DHT22;38765;53.176;7.090;2022-08-05T14:20:52;20.30;99.90
52903;DHT22;38765;53.176;7.090;2022-08-05T14:23:17;20.30;99.90
52903;DHT22;38765;53.176;7.090;2022-08-05T14:25:45;20.40;99.90
52903;DHT22;38765;53.176;7.090;2022-08-05T14:28:13;20.20;99.90
52903;DHT22;38765;53.176;7.090;2022-08-05T14:30:46;20.20;99.90
52903;DHT22;38765;53.176;7.090;2022-08-05T14:33:12;20.10;99.90
52903;DHT22;38765;53.176;7.090;2022-08-05T14:35:38;20.00;99.90
52903;DHT22;38765;53.176;7.090;2022-08-05T14:38:08;19.90;99.90
52903;DHT22;38765;53.176;7.090;2022-08-05T14:40:34;20.00;99.90
52903;DHT22;38765;53.176;7.090;2022-08-05T14:42:59;20.00;99.90
52903;DHT22;38765;53.176;7.090;2022-08-05T14:45:28;19.60;99.90
52903;DHT22;38765;53.176;7.090;2022-08-05T14:47:56;20.00;99.90
52903;DHT22;38765;53.176;7.090;2022-08-05T14:50:22;19.70;99.90
52903;DHT22;38765;53.176;7.090;2022-08-05T14:52:47;19.90;99.90
52903;DHT22;38765;53.176;7.090;2022-08-05T14:55:19;20.00;99.90
52903;DHT22;38765;53.176;7.090;2022-08-05T14:57:44;20.30;99.90
52903;DHT22;38765;53.176;7.090;2022-08-05T15:00:10;20.20;99.90
52903;DHT22;38765;53.176;7.090;2022-08-05T15:02:40;20.30;99.90
52903;DHT22;38765;53.176;7.090;2022-08-05T15:05:06;20.40;99.90
52903;DHT22;38765;53.176;7.090;2022-08-05T15:07:32;20.40;99.90
52903;DHT22;38765;53.176;7.090;2022-08-05T15:09:57;20.40;99.90
52903;DHT22;38765;53.176;7.090;2022-08-05T15:12:23;20.50;99.90
52903;DHT22;38765;53.176;7.090;2022-08-05T15:14:56;20.30;99.90
52903;DHT22;38765;53.176;7.090;2022-08-05T15:17:23;20.40;99.90
52903;DHT22;38765;53.176;7.090;2022-08-05T15:19:48;20.40;99.90
52903;DHT22;38765;53.176;7.090;2022-08-05T15:22:14;20.80;99.90
52903;DHT22;38765;53.176;7.090;2022-08-05T15:24:42;20.60;99.90
52903;DHT22;38765;53.176;7.090;2022-08-05T15:27:11;20.60;99.90
52903;DHT22;38765;53.176;7.090;2022-08-05T15:29:39;20.40;99.90
52903;DHT22;38765;53.176;7.090;2022-08-05T15:32:04;20.30;99.90
52903;DHT22;38765;53.176;7.090;2022-08-05T15:34:30;20.20;99.90
52903;DHT22;38765;53.176;7.090;2022-08-05T15:36:56;20.30;99.90
52903;DHT22;38765;53.176;7.090;2022-08-05T15:39:21;20.30;99.90
52903;DHT22;38765;53.176;7.090;2022-08-05T15:41:49;20.40;99.90
52903;DHT22;38765;53.176;7.090;2022-08-05T15:44:15;20.60;99.90
52903;DHT22;38765;53.176;7.090;2022-08-05T15:46:40;20.50;99.90
52903;DHT22;38765;53.176;7.090;2022-08-05T15:49:06;20.50;99.90
52903;DHT22;38765;53.176;7.090;2022-08-05T15:51:32;20.50;99.90
52903;DHT22;38765;53.176;7.090;2022-08-05T15:53:57;20.40;99.90
52903;DHT22;38765;53.176;7.090;2022-08-05T15:56:23;20.40;99.90
52903;DHT22;38765;53.176;7.090;2022-08-05T15:58:49;20.30;99.90
52903;DHT22;38765;53.176;7.090;2022-08-05T16:01:17;20.40;99.90
52903;DHT22;38765;53.176;7.090;2022-08-05T16:03:44;20.40;99.90
52903;DHT22;38765;53.176;7.090;2022-08-05T16:06:15;20.50;99.90
52903;DHT22;38765;53.176;7.090;2022-08-05T16:08:43;20.40;99.90